Time;durP1;ratioP1;P1;durP2;ratioP2;P2;SDS_P1;SDS_P2;PMS_P1;PMS_P2;Temp;Humidity;BMP_temperature;BMP_pressure;BME280_temperature;BME280_humidity;BME280_pressure;Samples;Min_cycle;Max_cycle;Signal;HPM_P1;HPM_P2
2023/04/08 00:04:42;;;;;;;28.50;15.68;;;;;;;0.00;100.00;59042.03;10380826;28;20056;-71
2023/04/08 00:09:43;;;;;;;26.77;15.15;;;;;;;0.00;100.00;59042.03;10393811;28;20116;-70
2023/04/08 00:14:43;;;;;;;27.15;14.90;;;;;;;0.00;100.00;59042.03;10386620;28;20029;-70
2023/04/08 00:19:44;;;;;;;35.05;17.63;;;;;;;0.00;100.00;59042.03;10365783;28;20041;-70
2023/04/08 00:24:44;;;;;;;23.85;14.50;;;;;;;0.00;100.00;59042.03;10360083;28;20484;-71
2023/04/08 00:29:45;;;;;;;26.87;12.80;;;;;;;0.00;100.00;59042.03;10341378;28;20432;-70
2023/04/08 00:34:45;;;;;;;25.08;13.10;;;;;;;0.00;100.00;59042.03;10356165;28;20285;-71
2023/04/08 00:39:46;;;;;;;19.77;11.52;;;;;;;0.00;100.00;59042.03;10377823;28;20038;-70
2023/04/08 00:44:46;;;;;;;19.03;11.50;;;;;;;0.00;100.00;59042.03;10372910;28;20040;-71
2023/04/08 00:49:47;;;;;;;24.75;13.32;;;;;;;0.00;100.00;59042.03;10383987;28;20280;-70
2023/04/08 00:54:47;;;;;;;26.00;16.02;;;;;;;0.00;100.00;59042.03;10378655;28;20044;-69
2023/04/08 00:59:48;;;;;;;32.58;19.73;;;;;;;0.00;100.00;59042.03;10376099;28;20030;-70
2023/04/08 01:04:54;;;;;;;29.60;17.92;;;;;;;0.00;100.00;59042.03;10382813;28;20520;-69
2023/04/08 01:09:57;;;;;;;40.53;20.65;;;;;;;0.00;100.00;59042.03;10382784;28;20029;-69
2023/04/08 01:15:03;;;;;;;35.13;20.17;;;;;;;0.00;100.00;59042.03;10384309;28;20512;-70
2023/04/08 01:20:06;;;;;;;39.83;19.90;;;;;;;0.00;100.00;59042.03;10383820;28;20069;-68
2023/04/08 01:25:21;;;;;;;33.13;18.55;;;;;;;0.00;100.00;59042.03;10378956;28;20036;-71
2023/04/08 01:30:24;;;;;;;30.40;18.65;;;;;;;0.00;100.00;59042.03;10342871;28;20038;-70
2023/04/08 01:35:25;;;;;;;28.67;15.82;;;;;;;0.00;100.00;59042.03;10360982;28;20156;-70
2023/04/08 01:40:25;;;;;;;27.85;16.52;;;;;;;0.00;100.00;59042.03;10382749;28;20033;-70
2023/04/08 01:45:27;;;;;;;29.52;15.15;;;;;;;0.00;100.00;59042.03;10382929;28;20025;-70
2023/04/08 01:50:29;;;;;;;29.35;16.27;;;;;;;0.00;100.00;59042.03;10382111;28;20040;-71
2023/04/08 01:55:31;;;;;;;29.15;14.65;;;;;;;0.00;100.00;59042.03;10381985;28;20033;-71
2023/04/08 02:00:33;;;;;;;26.48;13.85;;;;;;;0.00;100.00;59042.03;10380627;28;20033;-69
2023/04/08 02:05:34;;;;;;;29.27;15.75;;;;;;;0.00;100.00;59042.03;10382107;28;20049;-70
2023/04/08 02:10:35;;;;;;;22.10;13.38;;;;;;;0.00;100.00;59042.03;10381552;28;20029;-70
2023/04/08 02:15:40;;;;;;;22.92;11.43;;;;;;;0.00;100.00;59042.03;10381940;28;20480;-69
2023/04/08 02:20:50;;;;;;;22.15;12.13;;;;;;;0.00;100.00;59042.03;10381110;28;20033;-69
2023/04/08 02:25:54;;;;;;;20.90;11.05;;;;;;;0.00;100.00;59042.03;10379918;28;20415;-69
2023/04/08 02:30:56;;;;;;;21.02;12.07;;;;;;;0.00;100.00;59042.03;10380810;28;20025;-70
2023/04/08 02:35:58;;;;;;;17.73;11.18;;;;;;;0.00;100.00;59042.03;10381255;28;20047;-69
2023/04/08 02:40:58;;;;;;;19.55;10.63;;;;;;;0.00;100.00;59042.03;10369549;28;20029;-70
2023/04/08 02:46:02;;;;;;;21.35;12.48;;;;;;;0.00;100.00;59042.03;10380717;28;20045;-69
2023/04/08 02:51:02;;;;;;;19.75;11.60;;;;;;;0.00;100.00;59042.03;10380401;28;20408;-69
2023/04/08 02:56:03;;;;;;;22.65;12.60;;;;;;;0.00;100.00;59042.03;10379621;28;20029;-69
2023/04/08 03:01:04;;;;;;;23.77;12.10;;;;;;;0.00;100.00;59042.03;10379728;28;20053;-69
2023/04/08 03:06:04;;;;;;;21.73;12.82;;;;;;;0.00;100.00;59042.03;10378399;28;20099;-69
2023/04/08 03:11:05;;;;;;;28.15;13.38;;;;;;;0.00;100.00;59042.03;10378282;28;20029;-69
2023/04/08 03:16:06;;;;;;;25.95;11.75;;;;;;;0.00;100.00;59042.03;10376584;28;20028;-70
2023/04/08 03:21:06;;;;;;;22.60;13.20;;;;;;;0.00;100.00;59042.03;10373293;28;20021;-70
2023/04/08 03:26:07;;;;;;;25.42;14.00;;;;;;;0.00;100.00;59042.03;10360130;28;20033;-70
2023/04/08 03:31:07;;;;;;;21.63;12.82;;;;;;;0.00;100.00;59042.03;10369339;28;20044;-71
2023/04/08 03:36:08;;;;;;;22.45;11.77;;;;;;;0.00;100.00;59042.03;10373641;28;20036;-70
2023/04/08 03:41:09;;;;;;;17.40;12.00;;;;;;;0.00;100.00;59042.03;10376396;28;20493;-70
2023/04/08 03:46:09;;;;;;;21.70;13.65;;;;;;;0.00;100.00;59042.03;10373316;28;20017;-71
2023/04/08 03:51:10;;;;;;;22.90;12.85;;;;;;;0.00;100.00;59042.03;10370646;28;20021;-70
2023/04/08 03:56:11;;;;;;;25.83;13.73;;;;;;;0.00;100.00;59042.03;10376994;28;20056;-70
2023/04/08 04:01:11;;;;;;;26.52;14.70;;;;;;;0.00;100.00;59042.03;10379420;28;20037;-70
2023/04/08 04:06:12;;;;;;;25.38;13.73;;;;;;;0.00;100.00;59042.03;10381680;28;20599;-69
2023/04/08 04:11:12;;;;;;;33.00;15.98;;;;;;;0.00;100.00;59042.03;10385790;28;20103;-69
2023/04/08 04:16:13;;;;;;;37.50;20.10;;;;;;;0.00;100.00;59042.03;10386850;28;20030;-69
2023/04/08 04:21:13;;;;;;;38.22;21.95;;;;;;;0.00;100.00;59042.03;10378218;28;20034;-69
2023/04/08 04:26:14;;;;;;;39.45;21.55;;;;;;;0.00;100.00;59042.03;10386177;28;20076;-71
2023/04/08 04:31:22;;;;;;;33.05;18.77;;;;;;;0.00;100.00;59042.03;10385893;28;20028;-71
2023/04/08 04:36:22;;;;;;;;;;;;;;;0.00;100.00;59042.03;10385959;28;20044;-70
2023/04/08 04:41:23;;;;;;;29.05;17.45;;;;;;;0.00;100.00;59042.03;10385382;28;19928;-69
2023/04/08 04:46:23;;;;;;;33.58;17.17;;;;;;;0.00;100.00;59042.03;10384993;28;20561;-70
2023/04/08 04:51:24;;;;;;;32.83;18.58;;;;;;;0.00;100.00;59042.03;10384593;28;20037;-70
2023/04/08 04:56:25;;;;;;;39.58;19.15;;;;;;;0.00;100.00;59042.03;10384239;28;20093;-70
2023/04/08 05:01:27;;;;;;;34.20;18.75;;;;;;;0.00;100.00;59042.03;10383925;28;20392;-70
2023/04/08 05:06:28;;;;;;;32.03;18.15;;;;;;;0.00;100.00;59042.03;10384262;28;20033;-70
2023/04/08 05:11:28;;;;;;;29.23;17.55;;;;;;;0.00;100.00;59042.03;10383433;28;20026;-70
2023/04/08 05:16:29;;;;;;;41.10;20.52;;;;;;;0.00;100.00;59042.03;10358828;28;20052;-69
2023/04/08 05:21:29;;;;;;;36.60;20.08;;;;;;;0.00;100.00;59042.03;10383624;28;20863;-68
2023/04/08 05:26:30;;;;;;;37.58;17.95;;;;;;;0.00;100.00;59042.03;10383942;28;20502;-70
2023/04/08 05:31:31;;;;;;;30.17;16.63;;;;;;;0.00;100.00;59042.03;10382989;28;20408;-69
2023/04/08 05:36:31;;;;;;;33.90;17.70;;;;;;;0.00;100.00;59042.03;10400540;28;20039;-71
2023/04/08 05:41:31;;;;;;;25.23;15.98;;;;;;;0.00;100.00;59042.03;10387875;28;20036;-71
2023/04/08 05:46:32;;;;;;;27.07;14.57;;;;;;;0.00;100.00;59042.03;10380168;28;20167;-70
2023/04/08 05:51:33;;;;;;;33.47;16.20;;;;;;;0.00;100.00;59042.03;10378051;28;20334;-73
2023/04/08 05:56:33;;;;;;;55.15;19.33;;;;;;;0.00;100.00;59042.03;10387517;28;20030;-71
2023/04/08 06:01:34;;;;;;;36.65;17.40;;;;;;;0.00;100.00;59042.03;10382085;28;20067;-72
2023/04/08 06:06:37;;;;;;;33.53;16.15;;;;;;;0.00;100.00;59042.03;10392395;28;20452;-72
2023/04/08 06:11:37;;;;;;;27.38;14.98;;;;;;;0.00;100.00;59042.03;10386684;28;20503;-72
2023/04/08 06:16:38;;;;;;;23.35;13.68;;;;;;;0.00;100.00;59042.03;10389548;28;20391;-75
2023/04/08 06:21:57;;;;;;;29.38;15.15;;;;;;;7.04;100.00;94905.28;10615190;27;20405;-71
2023/04/08 06:26:58;;;;;;;31.25;14.18;;;;;;;7.04;100.00;94906.06;10588026;27;20030;-74
2023/04/08 06:31:58;;;;;;;27.80;15.30;;;;;;;7.35;100.00;94907.28;10591737;27;20027;-75
2023/04/08 06:36:59;;;;;;;23.55;13.52;;;;;;;7.78;100.00;94901.34;10577945;27;20412;-76
2023/04/08 06:41:59;;;;;;;28.13;13.85;;;;;;;8.07;100.00;94901.91;10605294;27;20027;-76
2023/04/08 06:47:00;;;;;;;28.23;13.85;;;;;;;8.02;100.00;94905.38;10606898;27;20477;-74
2023/04/08 06:52:05;;;;;;;26.67;13.83;;;;;;;7.97;100.00;94913.34;10596942;27;20025;-84
2023/04/08 06:57:06;;;;;;;21.23;12.70;;;;;;;7.74;100.00;94908.25;10575161;27;20356;-70
2023/04/08 07:02:06;;;;;;;22.92;13.27;;;;;;;7.84;100.00;94905.69;10579009;27;20039;-73
2023/04/08 07:07:07;;;;;;;25.80;14.10;;;;;;;7.92;100.00;94909.81;10579722;27;20092;-71
2023/04/08 07:12:07;;;;;;;26.48;13.73;;;;;;;7.86;100.00;94906.25;10590140;27;20277;-72
2023/04/08 07:17:08;;;;;;;23.20;13.45;;;;;;;8.17;100.00;94909.25;10555862;27;20035;-72
2023/04/08 07:22:08;;;;;;;28.50;14.90;;;;;;;8.51;100.00;94917.06;10587342;27;20031;-71
2023/04/08 07:27:09;;;;;;;26.92;12.27;;;;;;;8.89;100.00;94913.34;10573849;27;20071;-72
2023/04/08 07:32:10;;;;;;;25.13;13.10;;;;;;;9.14;99.76;94919.94;10537251;28;20023;-74
2023/04/08 07:37:10;;;;;;;29.85;13.63;;;;;;;9.32;98.08;94920.56;10552668;27;20023;-72
2023/04/08 07:42:11;;;;;;;22.75;13.10;;;;;;;9.76;100.00;94914.84;10561589;27;20028;-73
2023/04/08 07:47:11;;;;;;;32.00;13.13;;;;;;;9.84;93.08;94918.91;10560833;27;20034;-71
2023/04/08 07:52:14;;;;;;;23.38;11.20;;;;;;;10.21;88.75;94923.28;10582684;27;20052;-70
2023/04/08 07:57:15;;;;;;;23.98;12.32;;;;;;;10.39;89.43;94925.47;10550267;27;20832;-77
2023/04/08 08:02:16;;;;;;;26.45;14.57;;;;;;;10.78;91.00;94927.66;10556598;27;20122;-73
2023/04/08 08:07:17;;;;;;;20.92;11.98;;;;;;;11.02;83.43;94932.47;10575959;27;20019;-76
2023/04/08 08:12:18;;;;;;;20.65;11.73;;;;;;;11.16;75.61;94931.94;10550645;27;20763;-76
2023/04/08 08:17:19;;;;;;;22.10;12.18;;;;;;;11.40;79.23;94935.66;10567503;27;20044;-84
2023/04/08 08:22:20;;;;;;;22.48;12.77;;;;;;;11.27;78.30;94931.66;10561989;27;20517;-79
2023/04/08 08:27:20;;;;;;;21.90;12.02;;;;;;;11.46;81.36;94939.94;10561439;27;20015;-79
2023/04/08 08:32:20;;;;;;;19.33;11.93;;;;;;;11.72;72.80;94942.56;10552443;27;20378;-77
2023/04/08 08:37:22;;;;;;;22.92;12.88;;;;;;;11.76;76.27;94938.22;10557790;27;20284;-75
2023/04/08 08:42:23;;;;;;;27.60;13.40;;;;;;;11.80;76.19;94938.47;10542319;27;20183;-72
2023/04/08 08:47:24;;;;;;;27.42;13.85;;;;;;;11.69;76.79;94942.28;10552229;27;20495;-71
2023/04/08 08:52:25;;;;;;;31.08;16.83;;;;;;;11.66;80.41;94938.25;10555393;27;20487;-73
2023/04/08 08:57:26;;;;;;;31.53;16.97;;;;;;;11.58;81.51;94953.09;10568467;27;20027;-73
2023/04/08 09:02:30;;;;;;;30.60;15.82;;;;;;;11.35;85.05;94945.63;10536624;27;20261;-72
2023/04/08 09:07:35;;;;;;;30.58;15.45;;;;;;;11.09;88.55;94946.47;10523849;27;20500;-71
2023/04/08 09:12:52;;;;;;;25.20;13.15;;;;;;;11.10;85.70;94958.81;10559071;27;20031;-71
2023/04/08 09:17:53;;;;;;;22.27;11.27;;;;;;;11.18;85.15;94954.00;10543000;27;20040;-71
2023/04/08 09:22:58;;;;;;;21.85;12.20;;;;;;;11.68;86.71;94949.56;10560370;27;20071;-72
2023/04/08 09:28:01;;;;;;;23.02;13.57;;;;;;;12.11;79.30;94947.25;10529149;27;20024;-72
2023/04/08 09:33:05;;;;;;;21.67;12.18;;;;;;;12.47;74.52;94933.59;10530288;27;20529;-71
2023/04/08 09:38:06;;;;;;;24.75;13.00;;;;;;;13.18;74.96;94922.47;10581721;27;20127;-73
2023/04/08 09:43:11;;;;;;;25.58;12.93;;;;;;;14.01;64.06;94917.00;10557016;27;20478;-72
2023/04/08 09:48:16;;;;;;;18.13;10.60;;;;;;;15.45;58.01;94913.97;10557608;27;20050;-72
2023/04/08 09:53:34;;;;;;;17.75;10.60;;;;;;;16.12;53.28;94910.75;10567988;27;20412;-72
2023/04/08 09:58:58;;;;;;;27.08;11.20;;;;;;;16.65;49.29;94903.09;10549565;27;20065;-72
2023/04/08 10:04:02;;;;;;;22.60;11.50;;;;;;;18.41;47.22;94898.13;10543699;27;20405;-73
2023/04/08 10:09:03;;;;;;;28.85;11.32;;;;;;;19.80;41.75;94884.63;10554392;27;20084;-72
2023/04/08 10:14:04;;;;;;;23.02;10.63;;;;;;;20.02;41.79;94878.09;10532014;27;20089;-71
2023/04/08 10:19:40;;;;;;;19.08;9.85;;;;;;;17.73;42.94;94882.13;10543973;28;20056;-73
2023/04/08 10:25:16;;;;;;;21.45;11.30;;;;;;;15.55;47.21;94886.69;10541810;28;20034;-72
2023/04/08 10:30:31;;;;;;;19.52;12.43;;;;;;;14.30;53.72;94894.44;10536389;28;20168;-72
2023/04/08 10:35:35;;;;;;;21.58;11.63;;;;;;;13.71;56.40;94891.97;10556176;28;20027;-71
2023/04/08 10:40:37;;;;;;;20.30;10.68;;;;;;;13.91;57.62;94876.59;10558047;28;20115;-72
2023/04/08 10:45:39;;;;;;;28.15;12.40;;;;;;;14.07;57.73;94871.78;10552945;28;20047;-71
2023/04/08 10:50:40;;;;;;;26.67;13.20;;;;;;;13.77;59.48;94866.50;10537581;28;20493;-72
2023/04/08 10:55:41;;;;;;;27.42;10.77;;;;;;;13.06;61.94;94868.91;10550041;28;20026;-72
2023/04/08 11:00:41;;;;;;;21.02;10.20;;;;;;;14.44;58.77;94860.16;10541626;28;20046;-72
2023/04/08 11:05:42;;;;;;;19.08;10.82;;;;;;;15.92;52.29;94854.25;10578277;27;20027;-72
2023/04/08 11:10:43;;;;;;;17.27;9.20;;;;;;;16.81;46.99;94846.53;10577073;27;20490;-72
2023/04/08 11:15:44;;;;;;;26.35;10.38;;;;;;;16.71;45.95;94839.44;10579208;27;20042;-72
2023/04/08 11:20:44;;;;;;;22.98;10.38;;;;;;;16.22;47.84;94842.75;10582757;27;20374;-72
2023/04/08 11:25:47;;;;;;;18.38;10.02;;;;;;;15.41;49.01;94843.34;10568020;27;20020;-72
2023/04/08 11:30:48;;;;;;;18.15;10.00;;;;;;;14.75;50.45;94834.53;10538258;27;20093;-71
2023/04/08 11:35:53;;;;;;;20.60;10.32;;;;;;;14.13;51.92;94838.97;10559138;27;20420;-71
2023/04/08 11:40:55;;;;;;;14.00;8.30;;;;;;;13.55;50.88;94844.63;10566966;27;20110;-73
2023/04/08 11:45:55;;;;;;;16.85;9.07;;;;;;;13.65;49.98;94828.31;10564734;27;20015;-72
2023/04/08 11:51:03;;;;;;;16.67;9.57;;;;;;;13.40;55.13;94830.22;10547900;27;20023;-72
2023/04/08 11:56:16;;;;;;;;;;;;;;;12.64;57.03;94835.28;10563581;27;20023;-72
2023/04/08 12:01:17;;;;;;;17.33;10.52;;;;;;;12.54;59.93;94838.09;10573297;27;19927;-71
2023/04/08 12:06:18;;;;;;;18.33;10.63;;;;;;;12.72;62.77;94815.00;10552152;27;20019;-71
2023/04/08 12:11:18;;;;;;;18.77;10.43;;;;;;;12.68;61.27;94819.38;10556908;27;20739;-71
2023/04/08 12:16:19;;;;;;;15.25;8.10;;;;;;;12.02;64.77;94806.16;10553756;27;20335;-71
2023/04/08 12:21:20;;;;;;;12.10;7.72;;;;;;;12.21;58.58;94805.47;10573148;27;20055;-72
2023/04/08 12:26:20;;;;;;;17.15;9.35;;;;;;;12.34;62.19;94815.63;10556955;27;20023;-72
2023/04/08 12:31:21;;;;;;;13.23;7.83;;;;;;;12.09;59.84;94817.41;10554750;27;20026;-72
2023/04/08 12:36:21;;;;;;;20.67;7.55;;;;;;;12.21;63.01;94808.97;10584209;27;20027;-72
2023/04/08 12:41:22;;;;;;;15.80;8.38;;;;;;;11.63;68.78;94796.13;10541356;27;20024;-71
2023/04/08 12:46:23;;;;;;;14.88;9.45;;;;;;;11.25;73.96;94796.59;10545603;27;20030;-72
2023/04/08 12:51:25;;;;;;;14.77;7.30;;;;;;;11.37;82.08;94796.28;10553980;27;20401;-72
2023/04/08 12:56:26;;;;;;;12.50;7.90;;;;;;;10.97;84.39;94798.03;10554322;27;20024;-72
2023/04/08 13:01:26;;;;;;;12.77;7.60;;;;;;;11.21;82.93;94786.66;10566433;27;20038;-71
2023/04/08 13:06:27;;;;;;;16.85;8.88;;;;;;;11.51;78.45;94779.50;10563557;27;20069;-71
2023/04/08 13:11:27;;;;;;;12.52;7.93;;;;;;;11.59;74.95;94777.03;10564991;27;20149;-71
2023/04/08 13:16:28;;;;;;;17.15;8.65;;;;;;;11.73;71.65;94771.03;10544460;27;20034;-71
2023/04/08 13:21:28;;;;;;;12.98;8.27;;;;;;;11.77;72.04;94770.19;10565495;27;20043;-71
2023/04/08 13:26:29;;;;;;;16.07;8.60;;;;;;;12.18;71.52;94776.41;10553040;27;20519;-72
2023/04/08 13:31:29;;;;;;;16.77;7.87;;;;;;;12.33;68.86;94767.38;10556538;27;20257;-72
2023/04/08 13:36:30;;;;;;;25.37;9.03;;;;;;;12.64;67.90;94767.88;10573243;27;20261;-73
2023/04/08 13:41:30;;;;;;;12.43;7.82;;;;;;;12.91;67.36;94770.03;10567601;27;20334;-71
2023/04/08 13:46:31;;;;;;;18.15;9.65;;;;;;;12.69;67.89;94767.84;10547443;27;20550;-72
2023/04/08 13:51:31;;;;;;;13.77;8.25;;;;;;;12.60;68.68;94783.84;10550315;27;20034;-73
2023/04/08 13:56:32;;;;;;;18.85;8.75;;;;;;;12.38;68.59;94787.00;10574151;27;20027;-71
2023/04/08 14:01:32;;;;;;;14.57;8.88;;;;;;;11.94;69.83;94804.03;10520443;28;20051;-72
2023/04/08 14:06:34;;;;;;;13.23;7.70;;;;;;;10.39;100.00;94796.53;10552867;27;20026;-77
2023/04/08 14:11:35;;;;;;;17.42;9.80;;;;;;;9.25;100.00;94810.81;10554144;27;20023;-70
2023/04/08 14:16:36;;;;;;;15.33;9.60;;;;;;;9.15;100.00;94800.88;10539030;28;20023;-70
2023/04/08 14:21:36;;;;;;;19.20;11.13;;;;;;;9.21;100.00;94793.69;10546753;28;20293;-72
2023/04/08 14:26:37;;;;;;;16.55;9.07;;;;;;;8.75;100.00;94796.13;10551294;28;20020;-71
2023/04/08 14:31:37;;;;;;;19.77;10.20;;;;;;;8.56;100.00;94796.56;10539649;28;20477;-71
2023/04/08 14:36:38;;;;;;;19.83;10.52;;;;;;;8.23;100.00;94790.41;10547929;28;20084;-75
2023/04/08 14:41:40;;;;;;;20.30;11.35;;;;;;;8.21;100.00;94793.34;10538574;27;20470;-69
2023/04/08 14:46:41;;;;;;;18.60;9.77;;;;;;;8.42;100.00;94795.38;10565712;27;20114;-69
2023/04/08 14:51:41;;;;;;;17.38;10.32;;;;;;;8.68;100.00;94786.47;10550276;27;20354;-69
2023/04/08 14:56:42;;;;;;;19.77;10.57;;;;;;;8.95;100.00;94785.50;10556354;27;20042;-69
2023/04/08 15:01:43;;;;;;;16.15;9.60;;;;;;;9.01;100.00;94791.69;10548252;27;20026;-70
2023/04/08 15:06:44;;;;;;;20.85;9.77;;;;;;;9.09;100.00;94777.81;10553350;27;20379;-71
2023/04/08 15:11:44;;;;;;;17.95;10.18;;;;;;;9.31;100.00;94787.53;10554388;27;20036;-72
2023/04/08 15:16:45;;;;;;;19.52;10.30;;;;;;;9.41;100.00;94783.00;10554234;27;20436;-71
2023/04/08 15:21:45;;;;;;;15.60;9.57;;;;;;;9.43;100.00;94782.72;10539662;27;20814;-72
2023/04/08 15:26:45;;;;;;;16.93;10.37;;;;;;;9.68;100.00;94790.00;10550142;27;20277;-71
2023/04/08 15:31:46;;;;;;;20.58;12.10;;;;;;;9.76;100.00;94794.06;10555553;27;20278;-71
2023/04/08 15:36:46;;;;;;;19.20;9.87;;;;;;;9.78;100.00;94794.59;10547553;27;20031;-70
2023/04/08 15:41:46;;;;;;;14.73;9.30;;;;;;;9.62;100.00;94788.41;10550260;27;20039;-71
2023/04/08 15:46:47;;;;;;;19.85;11.00;;;;;;;9.74;100.00;94786.28;10546349;27;20027;-73
2023/04/08 15:51:49;;;;;;;15.67;9.63;;;;;;;9.72;100.00;94788.41;10548598;27;20019;-72
2023/04/08 15:56:50;;;;;;;15.73;9.82;;;;;;;9.83;100.00;94791.94;10556254;27;20716;-71
2023/04/08 16:01:50;;;;;;;16.67;10.43;;;;;;;9.83;100.00;94794.59;10552645;27;20033;-70
2023/04/08 16:06:50;;;;;;;15.50;9.23;;;;;;;9.90;100.00;94802.41;10547326;27;20046;-72
2023/04/08 16:11:52;;;;;;;21.03;11.77;;;;;;;9.99;100.00;94808.03;10550521;27;20019;-70
2023/04/08 16:16:52;;;;;;;19.50;10.32;;;;;;;10.06;100.00;94811.28;10556040;27;20593;-71
2023/04/08 16:21:52;;;;;;;22.87;11.00;;;;;;;10.05;100.00;94817.72;10529691;27;20050;-73
2023/04/08 16:26:53;;;;;;;24.65;13.15;;;;;;;10.02;100.00;94818.25;10537987;27;20530;-72
2023/04/08 16:31:53;;;;;;;21.70;12.60;;;;;;;10.03;100.00;94809.94;10550926;27;20103;-73
2023/04/08 16:36:54;;;;;;;23.53;14.37;;;;;;;10.00;100.00;94817.72;10544515;27;20792;-72
2023/04/08 16:41:54;;;;;;;22.13;12.30;;;;;;;9.81;100.00;94812.88;10548608;27;20301;-71
2023/04/08 16:46:54;;;;;;;25.77;14.17;;;;;;;9.84;100.00;94822.28;10551613;27;20050;-72
2023/04/08 16:51:55;;;;;;;24.80;13.33;;;;;;;9.70;100.00;94830.81;10525473;27;20270;-72
2023/04/08 16:56:55;;;;;;;22.88;12.95;;;;;;;9.57;100.00;94834.00;10550588;27;20460;-72
2023/04/08 17:01:56;;;;;;;21.13;11.88;;;;;;;9.41;100.00;94838.53;10547935;27;20027;-71
2023/04/08 17:06:56;;;;;;;24.33;13.55;;;;;;;9.28;100.00;94844.38;10528953;27;20023;-71
2023/04/08 17:11:57;;;;;;;24.45;15.00;;;;;;;9.08;100.00;94856.59;10527788;27;20723;-73
2023/04/08 17:16:57;;;;;;;26.17;14.93;;;;;;;9.04;100.00;94866.25;10527193;27;20027;-72
2023/04/08 17:21:57;;;;;;;27.03;14.60;;;;;;;8.79;100.00;94878.44;10545261;27;20090;-71
2023/04/08 17:26:58;;;;;;;26.42;14.10;;;;;;;8.45;100.00;94891.31;10526727;27;20028;-72
2023/04/08 17:31:59;;;;;;;28.17;14.80;;;;;;;7.98;100.00;94900.75;10543798;27;20509;-73
2023/04/08 17:36:59;;;;;;;25.03;14.80;;;;;;;7.64;100.00;94920.47;10549315;27;20474;-74
2023/04/08 17:42:00;;;;;;;28.08;14.68;;;;;;;7.03;100.00;94941.06;10527595;27;20525;-70
2023/04/08 17:47:02;;;;;;;23.73;13.38;;;;;;;6.47;100.00;94949.81;10540310;27;20704;-73
2023/04/08 17:52:02;;;;;;;24.00;12.95;;;;;;;6.27;100.00;94967.09;10541636;27;20034;-73
2023/04/08 17:57:03;;;;;;;22.30;13.20;;;;;;;6.32;100.00;94975.22;10540067;27;20035;-72
2023/04/08 18:02:03;;;;;;;30.48;16.60;;;;;;;6.40;100.00;94982.00;10548261;27;20039;-71
2023/04/08 18:07:04;;;;;;;27.10;16.25;;;;;;;6.72;100.00;95007.38;10522363;27;20439;-69
2023/04/08 18:12:05;;;;;;;29.77;16.33;;;;;;;6.86;100.00;95018.56;10538233;27;20027;-68
2023/04/08 18:17:05;;;;;;;30.02;17.23;;;;;;;6.96;100.00;95032.91;10538626;27;20273;-69
2023/04/08 18:22:06;;;;;;;30.00;16.15;;;;;;;7.00;100.00;95027.88;10551756;28;20028;-69
2023/04/08 18:27:07;;;;;;;30.90;16.97;;;;;;;6.99;100.00;95037.75;10520133;27;20050;-70
2023/04/08 18:32:07;;;;;;;28.70;16.27;;;;;;;6.84;100.00;95034.84;10513571;28;20673;-69
2023/04/08 18:37:09;;;;;;;45.10;21.70;;;;;;;6.96;100.00;95035.56;10537757;28;20035;-70
2023/04/08 18:42:10;;;;;;;38.40;19.25;;;;;;;6.95;100.00;95030.44;10552633;28;20038;-71
2023/04/08 18:47:10;;;;;;;33.28;16.95;;;;;;;6.98;100.00;95028.09;10569770;28;20027;-72
2023/04/08 18:52:12;;;;;;;34.80;18.73;;;;;;;6.98;100.00;95035.31;10552980;28;20019;-72
2023/04/08 18:57:12;;;;;;;32.45;16.27;;;;;;;6.97;100.00;95036.38;10535476;28;20023;-72
2023/04/08 19:02:13;;;;;;;34.55;17.77;;;;;;;6.93;100.00;95044.06;10556955;28;20436;-69
2023/04/08 19:07:15;;;;;;;27.98;16.33;;;;;;;6.90;100.00;95038.41;10554016;28;20062;-69
2023/04/08 19:12:15;;;;;;;37.72;19.08;;;;;;;6.90;100.00;95047.22;10539643;28;20382;-69
2023/04/08 19:17:16;;;;;;;26.07;15.07;;;;;;;6.86;100.00;95062.09;10546306;28;20051;-69
2023/04/08 19:22:16;;;;;;;27.63;15.23;;;;;;;6.79;100.00;95066.78;10556058;28;20277;-69
2023/04/08 19:27:17;;;;;;;43.23;21.70;;;;;;;6.76;100.00;95065.41;10528101;28;20103;-69
2023/04/08 19:32:17;;;;;;;36.30;20.07;;;;;;;6.75;100.00;95068.31;10546679;27;20288;-70
2023/04/08 19:37:18;;;;;;;61.70;27.15;;;;;;;6.82;100.00;95079.66;10546520;27;20266;-71
2023/04/08 19:42:19;;;;;;;35.88;17.73;;;;;;;6.85;100.00;95084.53;10583085;27;20098;-72
2023/04/08 19:47:19;;;;;;;38.83;20.10;;;;;;;6.86;100.00;95080.81;10573499;27;20034;-74
2023/04/08 19:52:20;;;;;;;33.30;18.20;;;;;;;6.91;100.00;95088.91;10546733;27;20265;-74
2023/04/08 19:57:21;;;;;;;32.33;18.08;;;;;;;6.90;100.00;95091.84;10564320;27;20062;-75
2023/04/08 20:02:24;;;;;;;30.98;16.25;;;;;;;6.76;100.00;95085.97;10567937;27;20024;-75
2023/04/08 20:07:25;;;;;;;31.05;16.15;;;;;;;6.81;100.00;95094.09;10547616;27;20389;-78
2023/04/08 20:12:25;;;;;;;31.58;17.63;;;;;;;6.81;100.00;95097.56;10557409;27;20024;-74
2023/04/08 20:17:29;;;;;;;32.50;18.55;;;;;;;6.81;100.00;95088.75;10561738;27;20514;-74
2023/04/08 20:22:31;;;;;;;34.00;18.75;;;;;;;6.79;100.00;95085.50;10557258;27;20031;-71
2023/04/08 20:27:32;;;;;;;37.30;18.35;;;;;;;6.81;100.00;95091.41;10532676;27;20035;-74
2023/04/08 20:32:33;;;;;;;35.70;18.70;;;;;;;6.58;100.00;95092.34;10520573;27;20035;-72
2023/04/08 20:37:33;;;;;;;33.22;17.48;;;;;;;6.51;100.00;95089.81;10563806;27;20015;-73
2023/04/08 20:42:34;;;;;;;35.07;17.40;;;;;;;6.62;100.00;95094.28;10541948;27;20027;-77
2023/04/08 20:47:35;;;;;;;29.90;17.52;;;;;;;6.69;100.00;95096.81;10535012;27;20031;-76
2023/04/08 20:52:35;;;;;;;26.25;14.48;;;;;;;6.69;100.00;95096.81;10568517;27;20027;-70
2023/04/08 20:57:40;;;;;;;31.83;16.83;;;;;;;6.64;100.00;95092.19;10558180;27;20030;-79
2023/04/08 21:02:44;;;;;;;30.42;15.73;;;;;;;6.62;100.00;95090.81;10545085;27;20285;-75
2023/04/08 21:07:50;;;;;;;28.02;15.50;;;;;;;6.61;100.00;95086.50;10545096;27;20118;-71
2023/04/08 21:12:54;;;;;;;29.90;14.68;;;;;;;6.54;100.00;95075.97;10549481;27;20543;-71
2023/04/08 21:17:59;;;;;;;30.35;16.77;;;;;;;6.47;100.00;95083.31;10548841;28;20578;-70
2023/04/08 21:23:01;;;;;;;26.30;16.13;;;;;;;6.43;100.00;95085.66;10545660;28;20019;-70
2023/04/08 21:28:03;;;;;;;29.25;17.90;;;;;;;6.39;100.00;95081.84;10547819;28;20020;-71
2023/04/08 21:33:08;;;;;;;34.75;18.10;;;;;;;6.28;100.00;95088.84;10529956;28;20035;-70
2023/04/08 21:38:11;;;;;;;36.80;18.63;;;;;;;6.33;100.00;95088.13;10549362;28;20043;-70
2023/04/08 21:43:13;;;;;;;33.30;18.42;;;;;;;6.25;100.00;95086.66;10532823;28;20115;-70
2023/04/08 21:48:18;;;;;;;36.60;19.95;;;;;;;6.25;100.00;95083.16;10550069;27;20394;-70
2023/04/08 21:53:20;;;;;;;40.25;20.75;;;;;;;6.25;100.00;95075.16;10550679;28;20035;-70
2023/04/08 21:58:21;;;;;;;49.45;24.90;;;;;;;6.16;100.00;95074.72;10559529;28;20035;-70
2023/04/08 22:03:21;;;;;;;44.63;22.30;;;;;;;6.12;100.00;95081.56;10550778;28;20402;-70
2023/04/08 22:08:22;;;;;;;47.75;22.73;;;;;;;6.21;100.00;95079.34;10550442;28;20027;-70
2023/04/08 22:13:22;;;;;;;48.10;23.98;;;;;;;6.25;100.00;95089.31;10549813;28;20117;-70
2023/04/08 22:18:23;;;;;;;34.77;19.83;;;;;;;6.35;100.00;95087.88;10549714;28;20056;-69
2023/04/08 22:23:23;;;;;;;40.43;22.53;;;;;;;6.42;100.00;95080.53;10549294;28;20326;-71
2023/04/08 22:28:24;;;;;;;45.47;25.77;;;;;;;6.22;100.00;95070.28;10549473;28;20266;-70
2023/04/08 22:33:24;;;;;;;50.10;25.48;;;;;;;6.13;100.00;95083.22;10550025;28;20414;-70
2023/04/08 22:38:25;;;;;;;50.92;24.65;;;;;;;6.10;100.00;95078.34;10530189;28;20051;-71
2023/04/08 22:43:25;;;;;;;43.47;23.08;;;;;;;6.15;100.00;95081.09;10489379;28;20032;-69
2023/04/08 22:48:26;;;;;;;43.03;21.90;;;;;;;6.03;100.00;95082.97;10542785;28;20030;-69
2023/04/08 22:53:26;;;;;;;40.57;21.00;;;;;;;5.95;100.00;95076.13;10549600;28;20027;-70
2023/04/08 22:58:27;;;;;;;41.00;20.15;;;;;;;5.87;100.00;95074.63;10549122;28;20933;-70